createdAt,value
2022-08-12T00:02:47.262Z,17.05
2022-08-12T00:06:09.581Z,17.00
2022-08-12T00:09:30.286Z,16.98
2022-08-12T00:12:50.559Z,16.95
2022-08-12T00:16:11.501Z,16.94
2022-08-12T00:19:32.301Z,16.91
2022-08-12T00:22:53.064Z,16.85
2022-08-12T00:26:23.696Z,16.86
2022-08-12T00:29:47.942Z,16.82
2022-08-12T00:33:11.102Z,16.78
2022-08-12T00:36:35.056Z,16.73
2022-08-12T00:39:57.871Z,16.68
2022-08-12T00:43:00.123Z,16.67
2022-08-12T00:46:20.755Z,16.61
2022-08-12T00:49:24.026Z,16.56
2022-08-12T00:52:25.837Z,16.51
2022-08-12T00:55:27.797Z,16.48
2022-08-12T00:58:33.027Z,16.47
2022-08-12T01:02:02.058Z,16.42
2022-08-12T01:05:25.199Z,16.38
2022-08-12T01:08:49.842Z,16.34
2022-08-12T01:11:52.377Z,16.29
2022-08-12T01:14:54.577Z,16.29
2022-08-12T01:17:56.586Z,16.27
2022-08-12T01:21:30.661Z,16.28
2022-08-12T01:25:06.757Z,16.27
2022-08-12T01:28:13.585Z,16.23
2022-08-12T01:31:17.749Z,16.18
2022-08-12T01:34:35.923Z,16.14
2022-08-12T01:38:00.008Z,16.10
2022-08-12T01:41:03.262Z,16.09
2022-08-12T01:44:06.480Z,16.11
2022-08-12T01:47:25.788Z,16.08
2022-08-12T01:51:06.118Z,16.07
2022-08-12T01:54:12.567Z,16.02
2022-08-12T01:57:58.299Z,16.02
2022-08-12T02:00:58.973Z,15.99
2022-08-12T02:04:41.379Z,15.97
2022-08-12T02:08:20.186Z,15.94
2022-08-12T02:11:29.128Z,15.88
2022-08-12T02:14:57.713Z,15.88
2022-08-12T02:18:13.005Z,15.86
2022-08-12T02:21:36.305Z,15.84
2022-08-12T02:24:40.043Z,15.82
2022-08-12T02:27:45.734Z,15.79
2022-08-12T02:30:47.894Z,15.73
2022-08-12T02:33:49.943Z,15.73
2022-08-12T02:36:55.981Z,15.73
2022-08-12T02:40:03.504Z,15.72
2022-08-12T02:43:20.109Z,15.71
2022-08-12T02:46:34.813Z,15.73
2022-08-12T02:49:44.567Z,15.69
2022-08-12T02:52:48.126Z,15.66
2022-08-12T02:55:49.826Z,15.62
2022-08-12T02:58:51.536Z,15.58
2022-08-12T03:01:56.720Z,15.57
2022-08-12T03:05:01.344Z,15.55
2022-08-12T03:08:04.982Z,15.50
2022-08-12T03:11:23.653Z,15.51
2022-08-12T03:14:29.578Z,15.47
2022-08-12T03:17:36.631Z,15.41
2022-08-12T03:20:40.631Z,15.36
2022-08-12T03:23:45.799Z,15.35
2022-08-12T03:26:48.858Z,15.32
2022-08-12T03:29:52.336Z,15.28
2022-08-12T03:32:56.453Z,15.21
2022-08-12T03:36:01.566Z,15.20
2022-08-12T03:39:12.063Z,15.16
2022-08-12T03:42:37.548Z,15.09
2022-08-12T03:45:57.688Z,15.03
2022-08-12T03:49:17.869Z,14.98
2022-08-12T03:52:38.694Z,14.90
2022-08-12T03:55:59.637Z,14.82
2022-08-12T03:59:22.054Z,14.79
2022-08-12T04:02:25.198Z,14.76
2022-08-12T04:05:54.479Z,14.72
2022-08-12T04:08:53.929Z,14.71
2022-08-12T04:12:14.105Z,14.71
2022-08-12T04:15:19.765Z,14.71
2022-08-12T04:18:21.644Z,14.66
2022-08-12T04:21:25.246Z,14.64
2022-08-12T04:24:27.776Z,14.66
2022-08-12T04:27:31.472Z,14.68
2022-08-12T04:30:33.946Z,14.67
2022-08-12T04:33:37.099Z,14.65
2022-08-12T04:36:40.800Z,14.67
2022-08-12T04:39:44.487Z,14.70
2022-08-12T04:42:46.093Z,14.74
2022-08-12T04:45:49.562Z,14.75
2022-08-12T04:48:52.495Z,14.76
2022-08-12T04:51:59.418Z,14.79
2022-08-12T04:55:01.652Z,14.86
2022-08-12T04:58:03.409Z,14.93
2022-08-12T05:01:05.788Z,15.01
2022-08-12T05:04:09.323Z,15.07
2022-08-12T05:07:11.791Z,15.18
2022-08-12T05:10:13.596Z,15.31
2022-08-12T05:13:45.160Z,15.39
2022-08-12T05:16:46.784Z,15.48
2022-08-12T05:19:48.370Z,15.53
2022-08-12T05:22:56.886Z,15.61
2022-08-12T05:26:01.081Z,15.72
2022-08-12T05:29:03.102Z,15.75
2022-08-12T05:32:07.965Z,15.74
2022-08-12T05:35:10.526Z,15.86
2022-08-12T05:38:34.831Z,16.45
2022-08-12T05:41:37.909Z,18.23
2022-08-12T05:44:39.545Z,19.38
2022-08-12T05:47:52.915Z,19.24
2022-08-12T05:50:56.703Z,18.70
2022-08-12T05:54:00.178Z,18.38
2022-08-12T05:57:01.709Z,19.22
2022-08-12T06:00:05.059Z,19.44
2022-08-12T06:03:19.302Z,19.02
2022-08-12T06:06:23.839Z,18.73
2022-08-12T06:09:28.745Z,18.69
2022-08-12T06:12:30.765Z,19.04
2022-08-12T06:15:37.828Z,19.80
2022-08-12T06:18:40.046Z,19.85
2022-08-12T06:21:42.748Z,20.02
2022-08-12T06:24:44.356Z,20.33
2022-08-12T06:28:05.847Z,20.58
2022-08-12T06:31:26.832Z,21.02
2022-08-12T06:35:23.332Z,20.79
2022-08-12T06:37:57.015Z,20.54
2022-08-12T06:41:19.574Z,20.38
2022-08-12T06:44:22.747Z,20.40
2022-08-12T06:47:24.396Z,20.45
2022-08-12T06:50:26.795Z,20.59
2022-08-12T06:53:34.112Z,20.83
2022-08-12T06:59:58.584Z,21.14
2022-08-12T07:03:22.812Z,21.26
2022-08-12T07:06:23.988Z,21.37
2022-08-12T07:10:01.583Z,21.48
2022-08-12T07:12:49.010Z,21.65
2022-08-12T07:15:55.783Z,21.87
2022-08-12T07:18:58.960Z,22.03
2022-08-12T07:22:06.438Z,22.21
2022-08-12T07:25:27.378Z,22.41
2022-08-12T07:28:33.715Z,22.62
2022-08-12T07:31:36.917Z,22.81
2022-08-12T07:34:39.401Z,22.97
2022-08-12T07:37:42.362Z,23.17
2022-08-12T07:40:44.080Z,23.30
2022-08-12T07:43:51.986Z,23.52
2022-08-12T07:46:53.578Z,23.66
2022-08-12T07:50:05.199Z,23.77
2022-08-12T07:53:08.090Z,23.87
2022-08-12T07:56:10.909Z,24.01
2022-08-12T07:59:12.783Z,24.17
2022-08-12T08:02:14.416Z,24.35
2022-08-12T08:05:16.324Z,24.48
2022-08-12T08:08:28.620Z,24.64
2022-08-12T08:11:49.278Z,24.68
2022-08-12T08:14:52.849Z,24.84
2022-08-12T08:18:02.908Z,24.93
2022-08-12T08:21:05.153Z,25.04
2022-08-12T08:24:15.790Z,25.18
2022-08-12T08:27:17.553Z,25.30
2022-08-12T08:30:19.247Z,25.45
2022-08-12T08:33:23.464Z,25.52
2022-08-12T08:36:43.868Z,25.64
2022-08-12T08:39:47.137Z,25.74
2022-08-12T08:42:51.351Z,25.85
2022-08-12T08:45:55.785Z,25.90
2022-08-12T08:48:59.562Z,25.94
2022-08-12T08:52:02.992Z,26.01
2022-08-12T08:55:05.010Z,26.15
2022-08-12T08:58:08.723Z,26.29
2022-08-12T09:01:11.673Z,26.38
2022-08-12T09:05:12.245Z,26.44
2022-08-12T09:12:06.767Z,26.55
2022-08-12T09:14:52.699Z,26.65
2022-08-12T09:17:57.314Z,26.75
2022-08-12T09:21:01.977Z,26.82
2022-08-12T09:24:07.442Z,26.93
2022-08-12T09:27:16.463Z,27.05
2022-08-12T09:30:41.213Z,27.16
2022-08-12T09:34:31.065Z,27.23
2022-08-12T09:37:19.205Z,27.34
2022-08-12T09:40:57.962Z,27.41
2022-08-12T09:44:06.105Z,27.46
2022-08-12T09:47:10.504Z,27.48
2022-08-12T09:50:20.460Z,27.53
2022-08-12T09:53:36.522Z,27.60
2022-08-12T09:56:59.309Z,27.64
2022-08-12T10:00:15.655Z,27.75
2022-08-12T10:03:31.796Z,27.74
2022-08-12T10:06:36.673Z,27.73
2022-08-12T10:09:58.341Z,27.78
2022-08-12T10:13:33.850Z,27.84
2022-08-12T10:16:43.841Z,27.89
2022-08-12T10:19:51.552Z,27.94
2022-08-12T10:23:01.776Z,28.02
2022-08-12T10:26:38.755Z,28.01
2022-08-12T10:30:03.243Z,28.15
2022-08-12T10:33:18.649Z,28.18
2022-08-12T10:36:21.191Z,28.18
2022-08-12T10:40:00.858Z,28.10
2022-08-12T10:43:20.654Z,27.99
2022-08-12T10:46:22.429Z,28.11
2022-08-12T10:50:02.958Z,28.16
2022-08-12T10:52:56.240Z,28.21
2022-08-12T10:55:57.952Z,28.24
2022-08-12T10:59:05.488Z,28.34
2022-08-12T11:04:27.369Z,28.39
2022-08-12T11:07:09.012Z,28.32
2022-08-12T11:09:00.521Z,28.33
2022-08-12T11:12:35.370Z,28.36
2022-08-12T11:16:02.882Z,28.35
2022-08-12T11:18:55.512Z,28.43
2022-08-12T11:22:01.284Z,28.47
2022-08-12T11:25:10.486Z,28.50
2022-08-12T11:28:14.326Z,28.49
2022-08-12T11:31:17.628Z,28.42
2022-08-12T11:34:53.452Z,28.43
2022-08-12T11:37:59.213Z,28.44
2022-08-12T11:41:04.003Z,28.45
2022-08-12T11:44:35.375Z,28.40
2022-08-12T11:47:30.581Z,28.36
2022-08-12T11:50:32.626Z,28.29
2022-08-12T11:53:59.440Z,28.37
2022-08-12T11:57:01.955Z,28.39
2022-08-12T12:02:00.913Z,28.39
2022-08-12T12:03:45.984Z,28.32
2022-08-12T12:06:52.904Z,28.37
2022-08-12T12:09:55.737Z,28.37
2022-08-12T12:12:57.636Z,28.40
2022-08-12T12:16:00.162Z,28.49
2022-08-12T12:19:04.005Z,28.48
2022-08-12T12:22:05.718Z,28.44
2022-08-12T12:25:12.955Z,28.44
2022-08-12T12:28:37.046Z,28.45
2022-08-12T12:32:10.692Z,28.35
2022-08-12T12:35:13.848Z,28.32
2022-08-12T12:38:25.156Z,28.28
2022-08-12T12:42:41.794Z,28.30
2022-08-12T12:44:53.562Z,28.35
2022-08-12T12:48:07.901Z,28.38
2022-08-12T12:51:48.221Z,28.36
2022-08-12T12:54:52.661Z,28.52
2022-08-12T12:58:00.070Z,28.53
2022-08-12T13:01:04.621Z,28.43
2022-08-12T13:04:25.561Z,28.48
2022-08-12T13:07:48.872Z,28.52
2022-08-12T13:10:52.159Z,28.51
2022-08-12T13:14:08.704Z,28.51
2022-08-12T13:17:14.729Z,28.53
2022-08-12T13:20:37.467Z,28.54
2022-08-12T13:23:45.889Z,28.58
2022-08-12T13:26:49.690Z,28.63
2022-08-12T13:29:52.028Z,28.68
2022-08-12T13:32:58.908Z,28.69
2022-08-12T13:36:05.958Z,28.77
2022-08-12T13:39:11.836Z,28.85
2022-08-12T13:42:14.852Z,28.89
2022-08-12T13:45:16.872Z,28.86
2022-08-12T13:48:19.865Z,28.84
2022-08-12T13:51:24.366Z,28.78
2022-08-12T13:58:22.807Z,28.82
2022-08-12T14:01:28.438Z,28.84
2022-08-12T14:04:30.077Z,28.82
2022-08-12T14:07:48.719Z,28.83
2022-08-12T14:10:53.440Z,28.86
2022-08-12T14:14:05.175Z,28.90
2022-08-12T14:17:13.384Z,28.89
2022-08-12T14:20:21.711Z,28.94
2022-08-12T14:24:04.879Z,28.91
2022-08-12T14:27:01.885Z,28.87
2022-08-12T14:30:15.575Z,28.81
2022-08-12T14:33:44.477Z,28.91
2022-08-12T14:36:46.408Z,28.82
2022-08-12T14:39:50.685Z,28.71
2022-08-12T14:42:52.415Z,28.68
2022-08-12T14:45:56.402Z,28.69
2022-08-12T14:48:58.074Z,28.64
2022-08-12T14:53:26.743Z,28.67
2022-08-12T14:59:23.484Z,28.62
2022-08-12T15:02:28.497Z,28.65
2022-08-12T15:06:05.543Z,28.69
2022-08-12T15:08:59.753Z,28.70
2022-08-12T15:12:04.348Z,28.67
2022-08-12T15:15:06.817Z,28.65
2022-08-12T15:18:10.171Z,28.59
2022-08-12T15:21:11.878Z,28.53
2022-08-12T15:24:13.564Z,28.51
2022-08-12T15:27:22.318Z,28.44
2022-08-12T15:30:42.671Z,28.46
2022-08-12T15:33:47.534Z,28.42
2022-08-12T15:36:54.572Z,28.41
2022-08-12T15:40:01.114Z,28.39
2022-08-12T15:43:04.406Z,28.40
2022-08-12T15:46:15.277Z,28.42
2022-08-12T15:49:19.148Z,28.39
2022-08-12T15:52:27.266Z,28.33
2022-08-12T15:55:33.509Z,28.27
2022-08-12T15:58:42.852Z,28.28
2022-08-12T16:01:44.501Z,28.22
2022-08-12T16:04:50.477Z,28.18
2022-08-12T16:07:52.422Z,28.10
2022-08-12T16:10:54.617Z,28.03
2022-08-12T16:13:56.268Z,27.99
2022-08-12T16:17:01.921Z,27.99
2022-08-12T16:20:06.265Z,27.94
2022-08-12T16:23:26.630Z,27.90
2022-08-12T16:26:36.642Z,27.82
2022-08-12T16:29:52.954Z,27.77
2022-08-12T16:32:58.371Z,27.77
2022-08-12T16:36:00.570Z,27.80
2022-08-12T16:39:03.823Z,27.78
2022-08-12T16:42:05.857Z,27.75
2022-08-12T16:45:09.862Z,27.74
2022-08-12T16:48:33.822Z,27.65
2022-08-12T16:51:40.382Z,27.66
2022-08-12T16:54:44.338Z,27.61
2022-08-12T16:57:49.325Z,27.50
2022-08-12T17:00:52.674Z,27.48
2022-08-12T17:04:08.229Z,27.48
2022-08-12T17:07:16.660Z,27.49
2022-08-12T17:10:35.896Z,27.40
2022-08-12T17:13:42.873Z,27.39
2022-08-12T17:16:55.858Z,27.36
2022-08-12T17:20:36.598Z,27.34
2022-08-12T17:23:52.835Z,27.29
2022-08-12T17:26:57.178Z,27.20
2022-08-12T17:30:03.438Z,27.15
2022-08-12T17:33:09.842Z,27.10
2022-08-12T17:36:15.681Z,27.05
2022-08-12T17:39:17.718Z,26.98
2022-08-12T17:42:32.217Z,26.86
2022-08-12T17:45:42.190Z,26.83
2022-08-12T17:48:54.926Z,26.74
2022-08-12T17:52:02.369Z,26.65
2022-08-12T17:55:07.242Z,26.54
2022-08-12T17:58:35.769Z,26.43
2022-08-12T18:01:45.287Z,26.34
2022-08-12T18:05:09.581Z,26.28
2022-08-12T18:08:11.115Z,26.17
2022-08-12T18:12:04.664Z,26.07
2022-08-12T18:15:08.745Z,25.94
2022-08-12T18:18:16.699Z,25.83
2022-08-12T18:21:20.994Z,25.72
2022-08-12T18:24:29.435Z,25.63
2022-08-12T18:27:44.814Z,25.49
2022-08-12T18:30:53.292Z,25.34
2022-08-12T18:34:02.959Z,25.23
2022-08-12T18:37:26.591Z,25.07
2022-08-12T18:40:46.156Z,24.97
2022-08-12T18:43:59.128Z,24.80
2022-08-12T18:47:06.385Z,24.59
2022-08-12T18:50:13.372Z,24.43
2022-08-12T18:54:05.502Z,24.30
2022-08-12T18:56:39.473Z,24.17
2022-08-12T19:00:00.683Z,24.02
2022-08-12T19:03:06.249Z,23.83
2022-08-12T19:06:27.582Z,23.68
2022-08-12T19:09:39.230Z,23.53
2022-08-12T19:13:22.990Z,23.34
2022-08-12T19:16:27.000Z,23.16
2022-08-12T19:19:37.499Z,23.00
2022-08-12T19:22:44.067Z,22.81
2022-08-12T19:26:03.184Z,22.71
2022-08-12T19:29:07.598Z,22.62
2022-08-12T19:32:13.053Z,22.47
2022-08-12T19:38:37.845Z,22.25
2022-08-12T19:42:00.890Z,22.25
2022-08-12T19:45:12.305Z,22.11
2022-08-12T19:48:18.775Z,21.99
2022-08-12T19:51:33.353Z,21.86
2022-08-12T19:54:43.986Z,21.74
2022-08-12T19:58:01.315Z,21.64
2022-08-12T20:01:10.819Z,21.54
2022-08-12T20:04:15.665Z,21.45
2022-08-12T20:07:24.214Z,21.40
2022-08-12T20:10:37.127Z,21.32
2022-08-12T20:13:39.230Z,21.23
2022-08-12T20:16:53.272Z,21.14
2022-08-12T20:20:17.844Z,21.08
2022-08-12T20:23:23.543Z,21.00
2022-08-12T20:26:25.244Z,20.90
2022-08-12T20:29:35.560Z,20.82
2022-08-12T20:32:57.247Z,20.76
2022-08-12T20:36:13.375Z,20.63
2022-08-12T20:39:52.467Z,20.53
2022-08-12T20:42:46.247Z,20.45
2022-08-12T20:45:57.454Z,20.39
2022-08-12T20:49:14.332Z,20.35
2022-08-12T20:52:19.185Z,20.29
2022-08-12T20:55:21.015Z,20.24
2022-08-12T20:58:23.298Z,20.16
2022-08-12T21:01:36.647Z,20.11
2022-08-12T21:05:16.118Z,20.08
2022-08-12T21:08:19.726Z,19.98
2022-08-12T21:11:24.548Z,19.96
2022-08-12T21:14:39.590Z,19.92
2022-08-12T21:18:11.170Z,19.88
2022-08-12T21:21:46.881Z,19.79
2022-08-12T21:24:46.570Z,19.73
2022-08-12T21:27:58.870Z,19.69
2022-08-12T21:32:34.395Z,19.62
2022-08-12T21:34:29.451Z,19.55
2022-08-12T21:37:31.819Z,19.51
2022-08-12T21:40:51.830Z,19.46
2022-08-12T21:43:55.107Z,19.45
2022-08-12T21:47:18.271Z,19.44
2022-08-12T21:50:22.268Z,19.37
2022-08-12T21:53:31.696Z,19.29
2022-08-12T21:56:55.812Z,19.24
2022-08-12T21:59:57.482Z,19.17
2022-08-12T22:03:17.717Z,19.12
2022-08-12T22:06:43.912Z,19.06
2022-08-12T22:09:46.194Z,19.02
2022-08-12T22:12:48.034Z,18.99
2022-08-12T22:15:52.578Z,18.96
2022-08-12T22:18:57.433Z,18.94
2022-08-12T22:22:01.219Z,18.93
2022-08-12T22:25:06.654Z,18.93
2022-08-12T22:28:26.984Z,18.92
2022-08-12T22:31:40.596Z,18.89
2022-08-12T22:34:42.197Z,18.89
2022-08-12T22:37:46.276Z,18.88
2022-08-12T22:40:49.754Z,18.86
2022-08-12T22:44:10.395Z,18.86
2022-08-12T22:47:54.273Z,18.85
2022-08-12T22:50:59.410Z,18.82
2022-08-12T22:54:01.262Z,18.79
2022-08-12T22:57:03.509Z,18.78
2022-08-12T23:00:10.126Z,18.77
2022-08-12T23:03:48.490Z,18.77
2022-08-12T23:06:54.561Z,18.73
2022-08-12T23:09:56.194Z,18.69
2022-08-12T23:13:16.445Z,18.68
2022-08-12T23:16:29.358Z,18.64
2022-08-12T23:19:36.096Z,18.59
2022-08-12T23:22:40.312Z,18.53
2022-08-12T23:25:54.811Z,18.49
2022-08-12T23:29:26.133Z,18.47
2022-08-12T23:32:35.633Z,18.40
2022-08-12T23:35:53.437Z,18.35
2022-08-12T23:39:03.736Z,18.31
2022-08-12T23:42:17.079Z,18.25
2022-08-12T23:45:31.178Z,18.19
2022-08-12T23:48:34.164Z,18.14
2022-08-12T23:51:36.655Z,18.07
2022-08-12T23:54:44.979Z,18.03
2022-08-12T23:58:17.409Z,17.92
